Terminal Aerodrome Forecast
Issued by NWS

Home | Current Version | Previous Version | Text Only | Print | Product List | Glossary On
Versions: 1 2 3 4 5 6 7 8 9 10 11 12 13 14 15 16 17 18 19
473
FTUS41 KCAR 251120
TAFPQI
TAF
KPQI 251120Z 2512/2612 12004KT P6SM SCT250
     FM251400 13006KT P6SM BKN100
     FM260400 09007KT P6SM BKN070
     FM260800 07007KT P6SM VCSH OVC045=

USA.gov is the U.S. government's official web portal to all federal, state and local government web resources and services.